Time;durP1;ratioP1;P1;durP2;ratioP2;P2;SDS_P1;SDS_P2;PMS_P1;PMS_P2;Temp;Humidity;BMP_temperature;BMP_pressure;BME280_temperature;BME280_humidity;BME280_pressure;Samples;Min_cycle;Max_cycle;Signal;HPM_P1;HPM_P2
2023/01/13 00:01:43;;;;;;;25.70;7.70;;;;;;;7.34;100.00;100254.09;10417282;28;20037;-63
2023/01/13 00:06:43;;;;;;;26.85;5.80;;;;;;;7.38;100.00;100251.84;10400010;28;20029;-64
2023/01/13 00:11:43;;;;;;;26.83;7.95;;;;;;;7.43;100.00;100249.41;10417417;28;20049;-63
2023/01/13 00:16:44;;;;;;;32.10;7.60;;;;;;;7.61;100.00;100249.78;10416589;28;20465;-64
2023/01/13 00:21:44;;;;;;;51.78;9.10;;;;;;;7.78;100.00;100236.03;10416958;28;20037;-63
2023/01/13 00:26:45;;;;;;;36.13;7.57;;;;;;;7.89;100.00;100240.88;10417259;28;20453;-64
2023/01/13 00:31:45;;;;;;;30.30;7.53;;;;;;;7.99;100.00;100224.38;10400623;28;20057;-63
2023/01/13 00:36:45;;;;;;;37.13;9.82;;;;;;;7.82;100.00;100231.94;10416410;28;20037;-64
2023/01/13 00:47:05;;;;;;;45.38;9.88;;;;;;;7.78;100.00;100222.53;10415787;28;20076;-63
2023/01/13 00:52:05;;;;;;;46.20;9.50;;;;;;;7.68;100.00;100207.53;10415883;28;20630;-64
2023/01/13 00:57:06;;;;;;;32.40;9.98;;;;;;;7.62;100.00;100216.41;10419074;28;20037;-64
2023/01/13 01:02:06;;;;;;;46.92;8.77;;;;;;;7.66;100.00;100219.56;10404614;28;20041;-64
2023/01/13 01:07:06;;;;;;;25.30;6.30;;;;;;;7.58;100.00;100215.13;10421664;28;20041;-64
2023/01/13 01:12:07;;;;;;;35.90;8.43;;;;;;;7.58;100.00;100215.13;10415369;28;20029;-64
2023/01/13 01:17:07;;;;;;;68.03;10.88;;;;;;;7.69;100.00;100203.00;10414087;28;20088;-64
2023/01/13 01:22:08;;;;;;;32.10;8.80;;;;;;;7.71;100.00;100195.53;10414515;28;20120;-63
2023/01/13 01:27:08;;;;;;;55.78;10.43;;;;;;;7.75;100.00;100201.38;10415482;28;20073;-63
2023/01/13 01:32:08;;;;;;;33.40;9.88;;;;;;;7.67;100.00;100215.84;10413999;28;20081;-63
2023/01/13 01:37:09;;;;;;;35.10;9.30;;;;;;;7.55;100.00;100193.97;10415517;28;20358;-64
2023/01/13 01:47:33;;;;;;;36.85;9.27;;;;;;;7.53;100.00;100208.66;10401344;28;20413;-64
2023/01/13 01:52:36;;;;;;;56.20;11.00;;;;;;;7.59;100.00;100206.03;10399325;28;20033;-62
2023/01/13 01:57:45;;;;;;;26.33;9.80;;;;;;;7.61;100.00;100205.84;10399436;28;20044;-63
2023/01/13 02:02:46;;;;;;;35.95;12.15;;;;;;;7.83;100.00;100210.16;10414667;28;20088;-63
2023/01/13 02:07:48;;;;;;;37.70;9.70;;;;;;;8.00;100.00;100193.66;10419746;28;20113;-63
2023/01/13 02:12:48;;;;;;;46.15;9.90;;;;;;;8.06;100.00;100185.63;10388981;28;20037;-63
2023/01/13 02:18:10;;;;;;;36.40;10.02;;;;;;;8.05;100.00;100185.81;10404017;28;20350;-62
2023/01/13 02:35:05;;;;;;;22.42;9.10;;;;;;;8.07;100.00;100195.41;10420592;28;20041;-63
2023/01/13 02:40:27;;;;;;;45.85;8.95;;;;;;;8.13;100.00;100189.19;10403393;28;20041;-63
2023/01/13 02:45:40;;;;;;;30.42;8.05;;;;;;;8.07;100.00;100184.59;10387612;28;20029;-63
2023/01/13 02:50:49;;;;;;;27.65;6.63;;;;;;;7.96;100.00;100187.84;10403541;28;20034;-62
2023/01/13 02:55:51;;;;;;;40.97;8.20;;;;;;;8.06;100.00;100185.63;10388094;28;20056;-64
2023/01/13 03:00:51;;;;;;;25.90;7.35;;;;;;;7.89;100.00;100176.19;10386292;28;20080;-63
2023/01/13 03:06:08;;;;;;;29.38;9.07;;;;;;;7.83;100.00;100158.94;10419995;28;20092;-64
2023/01/13 03:11:10;;;;;;;26.10;7.63;;;;;;;7.82;100.00;100202.28;10404509;28;20209;-63
2023/01/13 03:16:27;;;;;;;26.23;7.65;;;;;;;7.72;100.00;100188.28;10402644;28;20030;-64
2023/01/13 03:21:36;;;;;;;25.27;5.65;;;;;;;7.61;100.00;100181.59;10422430;28;20033;-64
2023/01/13 03:26:42;;;;;;;34.72;7.20;;;;;;;7.56;100.00;100184.03;10422262;28;20047;-63
2023/01/13 03:31:51;;;;;;;21.70;5.95;;;;;;;7.54;100.00;100180.72;10420804;28;20042;-64
2023/01/13 03:36:52;;;;;;;31.02;7.45;;;;;;;7.52;100.00;100188.16;10401196;28;20072;-63
2023/01/13 03:41:56;;;;;;;32.90;7.47;;;;;;;7.50;100.00;100182.97;10400503;28;20033;-64
2023/01/13 03:47:14;;;;;;;24.88;7.15;;;;;;;7.55;100.00;100179.66;10384900;28;20381;-63
2023/01/13 03:52:29;;;;;;;21.63;5.40;;;;;;;7.50;100.00;100172.19;10401933;28;20025;-63
2023/01/13 03:57:31;;;;;;;15.30;5.32;;;;;;;7.42;100.00;100188.47;10400755;28;20036;-64
2023/01/13 04:02:37;;;;;;;22.30;6.90;;;;;;;7.34;100.00;100173.31;10385079;28;20109;-64
2023/01/13 04:08:09;;;;;;;19.47;5.20;;;;;;;7.36;100.00;100181.19;10383356;28;20164;-62
2023/01/13 04:13:11;;;;;;;21.15;5.25;;;;;;;7.31;100.00;100189.03;10385167;28;20481;-62
2023/01/13 04:18:17;;;;;;;24.13;5.63;;;;;;;7.53;100.00;100198.75;10383266;28;20036;-64
2023/01/13 04:23:17;;;;;;;10.85;3.65;;;;;;;7.66;100.00;100201.53;10418055;28;20029;-63
2023/01/13 04:28:18;;;;;;;15.60;5.05;;;;;;;7.77;100.00;100177.75;10416569;28;20033;-62
2023/01/13 04:33:18;;;;;;;14.30;4.20;;;;;;;7.89;100.00;100193.19;10398463;28;20049;-63
2023/01/13 04:38:19;;;;;;;20.08;5.07;;;;;;;7.93;100.00;100196.31;10418085;28;20036;-63
2023/01/13 04:43:20;;;;;;;10.38;5.05;;;;;;;8.13;100.00;100191.88;10417330;28;20036;-63
2023/01/13 04:48:20;;;;;;;20.45;4.80;;;;;;;8.08;100.00;100207.84;10398434;28;20045;-62
2023/01/13 04:53:20;;;;;;;20.80;5.68;;;;;;;7.96;100.00;100209.41;10415923;28;20398;-63
2023/01/13 04:58:21;;;;;;;12.60;4.63;;;;;;;7.90;100.00;100208.31;10398676;28;20033;-63
2023/01/13 05:03:23;;;;;;;22.08;4.88;;;;;;;7.84;100.00;100184.03;10415695;28;20132;-63
2023/01/13 05:08:23;;;;;;;9.50;3.55;;;;;;;7.82;100.00;100200.41;10417068;28;20026;-63
2023/01/13 05:18:43;;;;;;;28.52;6.55;;;;;;;7.64;100.00;100192.81;10415154;28;20072;-63
2023/01/13 05:29:02;;;;;;;20.52;4.93;;;;;;;7.53;100.00;100206.81;10414513;28;20034;-63
2023/01/13 05:34:03;;;;;;;19.83;5.68;;;;;;;7.43;100.00;100203.59;10416299;28;20081;-63
2023/01/13 05:39:04;;;;;;;12.80;4.00;;;;;;;7.38;100.00;100212.28;10414994;28;20037;-63
2023/01/13 05:44:04;;;;;;;14.00;4.88;;;;;;;7.37;100.00;100212.47;10425481;28;20513;-63
2023/01/13 05:49:05;;;;;;;15.57;5.95;;;;;;;7.54;100.00;100216.56;10414206;28;20038;-63
2023/01/13 05:54:05;;;;;;;14.35;5.35;;;;;;;7.69;100.00;100220.00;10395929;28;20421;-63
2023/01/13 05:59:06;;;;;;;17.48;3.13;;;;;;;7.79;100.00;100211.59;10355149;28;20411;-63
2023/01/13 06:04:06;;;;;;;20.05;4.90;;;;;;;7.82;100.00;100213.88;10414688;28;20148;-63
2023/01/13 06:09:06;;;;;;;16.40;5.15;;;;;;;7.86;100.00;100209.75;10422286;28;20056;-64
2023/01/13 06:14:07;;;;;;;19.38;4.60;;;;;;;7.92;100.00;100202.75;10432021;28;20034;-63
2023/01/13 06:19:08;;;;;;;32.33;7.30;;;;;;;7.87;100.00;100215.97;10434888;28;20053;-63
2023/01/13 06:24:09;;;;;;;8.68;3.25;;;;;;;7.94;100.00;100203.38;10403753;28;20030;-64
2023/01/13 06:29:12;;;;;;;18.52;5.28;;;;;;;8.00;100.00;100205.28;10422589;28;20029;-62
2023/01/13 06:34:13;;;;;;;20.85;4.25;;;;;;;7.91;100.00;100209.16;10422368;28;20547;-64
2023/01/13 06:39:15;;;;;;;27.20;6.22;;;;;;;7.98;100.00;100230.81;10394455;28;20037;-63
2023/01/13 06:44:17;;;;;;;22.92;7.38;;;;;;;7.97;100.00;100226.41;10421396;28;20057;-64
2023/01/13 06:49:17;;;;;;;25.00;6.65;;;;;;;7.85;100.00;100234.22;10386526;28;20038;-63
2023/01/13 06:54:18;;;;;;;22.42;6.05;;;;;;;7.84;100.00;100254.09;10419812;28;20080;-63
2023/01/13 06:59:18;;;;;;;15.80;5.65;;;;;;;7.87;100.00;100242.94;10420423;28;20107;-64
2023/01/13 07:04:19;;;;;;;18.50;5.38;;;;;;;7.88;100.00;100239.19;10421089;28;20041;-64
2023/01/13 07:09:19;;;;;;;11.63;4.20;;;;;;;7.90;100.00;100246.06;10420357;28;20029;-64
2023/01/13 07:19:38;;;;;;;15.82;4.72;;;;;;;8.10;100.00;100254.31;10418343;28;20033;-64
2023/01/13 07:24:39;;;;;;;22.75;5.90;;;;;;;8.10;100.00;100245.38;10418971;28;20042;-62
2023/01/13 07:29:39;;;;;;;10.65;4.07;;;;;;;8.13;100.00;100259.28;10400734;28;20393;-63
2023/01/13 07:34:40;;;;;;;15.35;5.20;;;;;;;8.18;100.00;100256.03;10419790;28;20049;-63
2023/01/13 07:39:40;;;;;;;11.27;4.00;;;;;;;8.16;100.00;100252.69;10419292;28;20069;-62
2023/01/13 07:44:41;;;;;;;15.10;4.30;;;;;;;8.20;100.00;100264.75;10419163;28;20041;-63
2023/01/13 07:49:41;;;;;;;10.20;4.35;;;;;;;8.30;100.00;100253.63;10417929;28;20037;-63
2023/01/13 07:54:41;;;;;;;9.32;5.38;;;;;;;8.28;100.00;100266.47;10418010;28;20381;-63
2023/01/13 07:59:42;;;;;;;25.02;4.82;;;;;;;8.38;100.00;100292.06;10400339;28;20053;-63
2023/01/13 08:04:42;;;;;;;13.48;4.40;;;;;;;8.32;100.00;100286.59;10400029;28;20041;-64
2023/01/13 08:09:43;;;;;;;16.33;5.72;;;;;;;8.37;100.00;100303.88;10403906;28;20052;-64
2023/01/13 08:14:43;;;;;;;9.73;4.70;;;;;;;8.40;100.00;100307.25;10420564;28;20088;-64
2023/01/13 08:19:43;;;;;;;13.18;6.35;;;;;;;8.28;100.00;100323.09;10423674;28;20044;-63
2023/01/13 08:24:44;;;;;;;38.42;5.30;;;;;;;8.04;100.00;100316.25;10417738;28;20370;-63
2023/01/13 08:29:44;;;;;;;32.20;6.93;;;;;;;7.85;100.00;100329.41;10400451;28;20041;-64
2023/01/13 08:34:45;;;;;;;22.90;5.85;;;;;;;7.86;100.00;100320.28;10399632;28;20438;-64
2023/01/13 08:39:45;;;;;;;29.92;5.28;;;;;;;7.72;100.00;100334.66;10416538;28;20407;-63
2023/01/13 08:44:45;;;;;;;22.13;6.47;;;;;;;7.61;100.00;100330.63;10399422;28;20041;-63
2023/01/13 08:49:46;;;;;;;21.73;6.07;;;;;;;7.60;100.00;100339.75;10416845;28;20386;-64
2023/01/13 08:54:46;;;;;;;15.18;5.15;;;;;;;7.52;100.00;100353.31;10400121;28;20069;-63
2023/01/13 08:59:46;;;;;;;20.15;6.32;;;;;;;7.54;100.00;100328.91;10415474;28;20128;-63
2023/01/13 09:04:47;;;;;;;10.75;4.45;;;;;;;7.75;100.00;100353.13;10415576;28;20392;-63
2023/01/13 09:09:47;;;;;;;28.13;7.13;;;;;;;7.88;100.00;100363.22;10397646;28;20034;-63
2023/01/13 09:14:48;;;;;;;35.67;6.55;;;;;;;7.93;100.00;100355.38;10415939;28;20445;-65
2023/01/13 09:19:49;;;;;;;21.63;5.68;;;;;;;8.02;100.00;100383.88;10381014;28;20199;-63
2023/01/13 09:24:49;;;;;;;15.38;5.03;;;;;;;8.18;100.00;100388.19;10396931;28;20045;-63
2023/01/13 09:29:49;;;;;;;23.08;6.30;;;;;;;8.15;100.00;100399.34;10380375;28;20037;-63
2023/01/13 09:34:59;;;;;;;11.63;3.85;;;;;;;8.20;100.00;100391.53;10396635;28;20436;-63
2023/01/13 09:39:59;;;;;;;19.42;3.88;;;;;;;8.22;100.00;100402.94;10415071;28;20125;-63
2023/01/13 09:45:19;;;;;;;16.60;5.18;;;;;;;8.25;100.00;100409.81;10401937;28;20120;-63
2023/01/13 09:50:43;;;;;;;27.15;6.45;;;;;;;8.30;100.00;100415.47;10398683;28;20038;-62
2023/01/13 09:55:44;;;;;;;20.65;5.57;;;;;;;8.44;100.00;100428.06;10413642;28;20038;-64
2023/01/13 10:00:47;;;;;;;18.92;5.32;;;;;;;8.60;100.00;100443.13;10413477;28;20036;-64
2023/01/13 10:06:05;;;;;;;12.25;4.32;;;;;;;8.65;100.00;100464.13;10396486;28;20077;-62
2023/01/13 10:16:42;;;;;;;16.98;5.68;;;;;;;8.60;100.00;100462.03;10399926;28;20037;-63
2023/01/13 10:22:01;;;;;;;15.73;5.75;;;;;;;8.69;100.00;100487.84;10396586;28;20029;-64
2023/01/13 10:27:13;;;;;;;12.70;4.13;;;;;;;8.77;100.00;100476.06;10416568;28;20136;-63
2023/01/13 10:32:13;;;;;;;7.30;2.83;;;;;;;8.76;100.00;100487.91;10392150;28;20394;-65
2023/01/13 10:37:22;;;;;;;18.55;4.78;;;;;;;8.75;100.00;100494.34;10410671;28;20034;-63
2023/01/13 10:42:22;;;;;;;21.67;4.43;;;;;;;8.81;100.00;100507.06;10409969;28;20022;-64
2023/01/13 10:47:25;;;;;;;13.73;3.22;;;;;;;8.82;100.00;100506.00;10406707;28;20037;-63
2023/01/13 10:52:30;;;;;;;15.45;4.95;;;;;;;8.98;100.00;100511.13;10389477;28;20029;-62
2023/01/13 10:57:36;;;;;;;9.65;4.57;;;;;;;9.03;100.00;100518.63;10419899;28;20025;-63
2023/01/13 11:02:37;;;;;;;18.73;5.68;;;;;;;9.02;100.00;100516.97;10402648;28;20060;-63
2023/01/13 11:07:45;;;;;;;15.50;4.68;;;;;;;9.01;100.00;100518.00;10403167;28;20045;-63
2023/01/13 11:13:17;;;;;;;14.77;4.78;;;;;;;8.99;100.00;100530.84;10419220;28;20139;-65
2023/01/13 11:18:39;;;;;;;16.02;4.20;;;;;;;9.04;100.00;100536.50;10386521;28;20030;-64
2023/01/13 11:23:42;;;;;;;9.90;3.58;;;;;;;9.11;100.00;100541.97;10420584;28;20033;-63
2023/01/13 11:28:59;;;;;;;9.00;3.88;;;;;;;9.17;100.00;100546.59;10404092;28;20026;-63
2023/01/13 11:34:13;;;;;;;19.45;6.35;;;;;;;9.23;100.00;100556.59;10411649;28;20064;-64
2023/01/13 11:39:36;;;;;;;14.55;4.70;;;;;;;9.25;100.00;100565.31;10404284;28;20112;-63
2023/01/13 11:44:42;;;;;;;16.23;4.22;;;;;;;9.15;100.00;100565.66;10402593;28;20037;-64
2023/01/13 11:49:47;;;;;;;17.07;4.63;;;;;;;9.38;100.00;100583.50;10384174;28;20040;-63
2023/01/13 11:55:16;;;;;;;14.90;4.90;;;;;;;9.58;100.00;100579.06;10418623;28;20124;-63
2023/01/13 12:00:22;;;;;;;12.15;4.22;;;;;;;9.58;100.00;100584.47;10390246;28;20065;-64
2023/01/13 12:05:36;;;;;;;13.45;4.55;;;;;;;9.52;100.00;100593.38;10419791;28;20033;-64
2023/01/13 12:10:52;;;;;;;20.63;5.38;;;;;;;9.46;100.00;100605.81;10409318;28;20030;-65
2023/01/13 12:16:24;;;;;;;12.90;3.92;;;;;;;9.39;100.00;100604.94;10402925;28;20037;-65
2023/01/13 12:21:28;;;;;;;8.65;3.72;;;;;;;9.41;100.00;100607.44;10410221;28;20033;-66
2023/01/13 12:26:30;;;;;;;21.23;5.65;;;;;;;9.42;100.00;100615.34;10405434;28;20033;-63
2023/01/13 12:31:34;;;;;;;9.90;4.60;;;;;;;9.36;100.00;100636.94;10389634;28;20052;-63
2023/01/13 12:36:34;;;;;;;8.70;4.00;;;;;;;9.30;100.00;100635.84;10386732;28;20032;-65
2023/01/13 12:44:15;;;;;;;10.43;3.53;;;;;;;9.39;100.00;100650.06;10426748;28;20037;-65
2023/01/13 12:47:00;;;;;;;8.23;3.08;;;;;;;9.39;100.00;100644.66;10427886;28;20041;-64
2023/01/13 12:52:11;;;;;;;25.83;3.20;;;;;;;9.25;100.00;100665.28;10410541;28;20057;-64
2023/01/13 12:57:19;;;;;;;12.38;3.50;;;;;;;9.25;100.00;100674.25;10431740;28;20061;-64
2023/01/13 13:02:29;;;;;;;22.77;4.30;;;;;;;9.28;100.00;100673.00;10395882;28;20501;-65
2023/01/13 13:07:31;;;;;;;14.65;7.05;;;;;;;9.26;100.00;100669.69;10429595;28;20505;-64
2023/01/13 13:18:00;;;;;;;11.60;4.10;;;;;;;9.20;100.00;100689.38;10425043;28;20449;-64
2023/01/13 13:23:00;;;;;;;10.20;3.97;;;;;;;9.15;100.00;100673.72;10424846;28;20033;-63
2023/01/13 13:28:05;;;;;;;16.48;2.75;;;;;;;9.18;100.00;100696.81;10408289;28;20033;-65
2023/01/13 13:33:37;;;;;;;13.55;3.80;;;;;;;9.15;100.00;100705.31;10402748;28;20052;-64
2023/01/13 13:49:52;;;;;;;15.25;5.50;;;;;;;9.24;100.00;100748.22;10385211;28;20545;-64
2023/01/13 13:54:55;;;;;;;11.32;4.63;;;;;;;9.24;100.00;100767.13;10397852;28;20041;-63
2023/01/13 13:59:57;;;;;;;16.70;3.88;;;;;;;9.34;100.00;100782.19;10420060;28;20417;-64
2023/01/13 14:05:17;;;;;;;11.65;3.53;;;;;;;9.31;100.00;100765.34;10402972;28;20068;-63
2023/01/13 14:10:23;;;;;;;25.50;4.38;;;;;;;9.31;100.00;100788.81;10438382;28;20120;-64
2023/01/13 14:15:34;;;;;;;16.33;4.40;;;;;;;9.27;100.00;100796.47;10421963;28;20061;-64
2023/01/13 14:20:35;;;;;;;9.45;3.22;;;;;;;9.23;100.00;100797.91;10423616;28;20032;-64
2023/01/13 14:25:38;;;;;;;7.43;3.08;;;;;;;9.06;100.00;100774.81;10406445;28;20061;-63
2023/01/13 14:30:39;;;;;;;13.07;4.00;;;;;;;8.94;100.00;100812.31;10423788;28;20140;-65
2023/01/13 14:36:18;;;;;;;14.20;3.95;;;;;;;8.95;100.00;100834.75;10438096;28;20350;-63
2023/01/13 14:41:22;;;;;;;33.42;4.25;;;;;;;8.91;100.00;100823.50;10434129;28;20040;-63
2023/01/13 14:46:24;;;;;;;10.80;4.75;;;;;;;8.93;100.00;100843.03;10430908;28;20021;-63
2023/01/13 14:51:26;;;;;;;24.88;4.00;;;;;;;9.00;100.00;100853.94;10425780;28;20029;-63
2023/01/13 14:56:42;;;;;;;12.82;4.63;;;;;;;9.05;100.00;100851.50;10388387;28;20064;-64
2023/01/13 15:01:43;;;;;;;11.80;3.78;;;;;;;9.05;100.00;100857.72;10402585;28;20107;-64
2023/01/13 15:06:46;;;;;;;18.25;3.60;;;;;;;9.09;100.00;100882.50;10419812;28;20465;-65
2023/01/13 15:11:47;;;;;;;8.80;3.13;;;;;;;9.06;100.00;100890.97;10389292;28;20040;-64
2023/01/13 15:16:47;;;;;;;12.63;3.53;;;;;;;9.10;100.00;100896.88;10422659;28;20022;-64
2023/01/13 15:21:47;;;;;;;20.45;4.90;;;;;;;9.03;100.00;100905.72;10421789;28;20033;-63
2023/01/13 15:26:48;;;;;;;13.45;4.95;;;;;;;9.09;100.00;100906.81;10421029;28;20033;-63
2023/01/13 15:31:48;;;;;;;13.43;3.85;;;;;;;9.10;100.00;100916.63;10401333;28;20510;-63
2023/01/13 15:36:49;;;;;;;18.40;5.72;;;;;;;9.06;100.00;100921.56;10419804;28;20033;-64
2023/01/13 15:47:08;;;;;;;24.90;4.38;;;;;;;9.04;100.00;100939.81;10417480;28;20066;-63
2023/01/13 15:52:25;;;;;;;13.80;4.28;;;;;;;9.13;100.00;100945.13;10401262;28;20045;-64
2023/01/13 15:57:26;;;;;;;10.27;3.60;;;;;;;9.03;100.00;100940.84;10417307;28;20340;-63
2023/01/13 16:02:28;;;;;;;9.98;3.47;;;;;;;9.03;100.00;100951.66;10400041;28;20129;-64
2023/01/13 16:07:28;;;;;;;9.38;3.55;;;;;;;8.98;100.00;100937.84;10399812;28;20037;-64
2023/01/13 16:12:30;;;;;;;13.43;4.47;;;;;;;8.98;100.00;100970.25;10417157;28;20033;-64
2023/01/13 16:17:30;;;;;;;27.23;4.35;;;;;;;8.81;100.00;100971.47;10417082;28;20389;-63
2023/01/13 16:22:30;;;;;;;17.40;4.28;;;;;;;8.70;100.00;100977.31;10416942;28;20086;-64
2023/01/13 16:27:31;;;;;;;6.18;2.83;;;;;;;8.55;100.00;100997.00;10417766;28;20369;-63
2023/01/13 16:32:31;;;;;;;11.73;3.05;;;;;;;8.67;100.00;101004.66;10416736;28;20056;-64
2023/01/13 16:37:31;;;;;;;7.22;3.83;;;;;;;8.77;100.00;101013.34;10398497;28;20044;-63
2023/01/13 16:42:32;;;;;;;10.10;3.17;;;;;;;8.80;100.00;101010.28;10417874;28;20042;-63
2023/01/13 16:47:32;;;;;;;13.88;3.70;;;;;;;8.84;100.00;101028.63;10421945;28;20121;-64
2023/01/13 16:52:33;;;;;;;4.90;2.05;;;;;;;8.82;100.00;101032.53;10421192;28;20065;-64
2023/01/13 16:57:33;;;;;;;13.07;5.07;;;;;;;8.90;100.00;101051.34;10398420;28;20046;-63
2023/01/13 17:02:33;;;;;;;8.45;3.30;;;;;;;8.85;100.00;101041.13;10415616;28;20095;-65
2023/01/13 17:07:34;;;;;;;14.35;3.90;;;;;;;8.80;100.00;101039.97;10414613;28;20041;-63
2023/01/13 17:12:34;;;;;;;10.15;3.55;;;;;;;8.66;100.00;101056.97;10398380;28;20064;-62
2023/01/13 17:17:35;;;;;;;5.88;3.10;;;;;;;8.63;100.00;101073.53;10415404;28;20073;-63
2023/01/13 17:22:35;;;;;;;8.52;4.38;;;;;;;8.75;100.00;101088.31;10396503;28;20532;-63
2023/01/13 17:27:35;;;;;;;13.02;4.03;;;;;;;8.45;100.00;101095.41;10415063;28;20076;-64
2023/01/13 17:32:36;;;;;;;10.35;3.85;;;;;;;8.30;100.00;101096.16;10415127;28;20053;-62
2023/01/13 17:37:36;;;;;;;7.80;3.80;;;;;;;8.23;100.00;101097.03;10421756;28;20465;-64
2023/01/13 17:42:37;;;;;;;6.22;2.92;;;;;;;8.21;100.00;101096.38;10425938;28;20045;-63
2023/01/13 17:47:37;;;;;;;14.75;4.07;;;;;;;8.27;100.00;101093.81;10433143;28;20045;-62
2023/01/13 17:52:37;;;;;;;21.23;4.32;;;;;;;8.23;100.00;101095.19;10417149;28;20033;-62
2023/01/13 17:57:38;;;;;;;15.52;5.20;;;;;;;8.35;100.00;101092.91;10417560;28;20045;-63
2023/01/13 18:02:38;;;;;;;24.55;5.05;;;;;;;8.35;100.00;101109.94;10433816;28;20040;-63
2023/01/13 18:07:39;;;;;;;9.30;3.65;;;;;;;8.29;100.00;101118.75;10414757;28;20060;-63
2023/01/13 18:12:39;;;;;;;14.48;4.03;;;;;;;8.11;100.00;101145.16;10417717;28;20037;-62
2023/01/13 18:17:40;;;;;;;23.25;4.78;;;;;;;7.99;100.00;101147.41;10435292;28;20040;-62
2023/01/13 18:28:02;;;;;;;12.02;3.75;;;;;;;7.89;100.00;101171.03;10432480;28;20033;-63
2023/01/13 18:33:02;;;;;;;11.63;2.60;;;;;;;7.90;100.00;101181.63;10409712;28;20057;-62
2023/01/13 18:38:03;;;;;;;5.30;2.03;;;;;;;7.93;100.00;101181.28;10427209;28;20029;-63
2023/01/13 18:43:03;;;;;;;15.30;3.92;;;;;;;7.92;100.00;101200.34;10428267;28;20370;-62
2023/01/13 18:48:05;;;;;;;9.25;2.92;;;;;;;7.88;100.00;101189.06;10434302;28;20041;-63
2023/01/13 18:53:05;;;;;;;16.92;5.05;;;;;;;7.85;100.00;101205.59;10392269;28;20032;-63
2023/01/13 18:58:06;;;;;;;12.75;3.70;;;;;;;7.94;100.00;101211.78;10440522;28;20033;-64
2023/01/13 19:03:06;;;;;;;9.70;4.15;;;;;;;8.03;100.00;101216.16;10423902;28;20037;-64
2023/01/13 19:08:07;;;;;;;19.80;3.58;;;;;;;8.11;100.00;101204.50;10439693;28;20091;-63
2023/01/13 19:13:07;;;;;;;11.27;2.33;;;;;;;8.19;100.00;101214.41;10433711;28;20049;-64
2023/01/13 19:18:08;;;;;;;5.47;3.55;;;;;;;8.21;100.00;101205.13;10404803;28;20029;-63
2023/01/13 19:23:09;;;;;;;16.02;2.92;;;;;;;8.26;100.00;101208.13;10423009;28;20037;-63
2023/01/13 19:28:09;;;;;;;14.35;3.05;;;;;;;8.32;100.00;101218.22;10422784;28;20061;-63
2023/01/13 19:33:09;;;;;;;2.45;2.25;;;;;;;8.34;100.00;101209.97;10420525;28;20057;-64
2023/01/13 19:38:10;;;;;;;9.82;3.75;;;;;;;8.35;100.00;101234.06;10420173;28;20428;-63
2023/01/13 19:48:29;;;;;;;9.35;3.65;;;;;;;8.26;100.00;101239.66;10418846;28;20059;-64
2023/01/13 19:53:30;;;;;;;14.65;4.28;;;;;;;8.40;100.00;101251.66;10419316;28;20374;-63
2023/01/13 19:58:30;;;;;;;21.00;4.60;;;;;;;8.38;100.00;101259.91;10419377;28;20470;-66
2023/01/13 20:03:34;;;;;;;17.60;4.03;;;;;;;8.43;100.00;101259.41;10404907;28;20045;-64
2023/01/13 20:08:35;;;;;;;4.97;3.13;;;;;;;8.43;100.00;101260.22;10424202;28;20069;-63
2023/01/13 20:13:35;;;;;;;13.38;4.25;;;;;;;8.40;100.00;101284.88;10418065;28;20061;-66
2023/01/13 20:18:36;;;;;;;10.80;3.45;;;;;;;8.49;100.00;101304.59;10417557;28;20030;-64
2023/01/13 20:23:36;;;;;;;9.02;2.70;;;;;;;8.43;100.00;101311.50;10416792;28;20549;-63
2023/01/13 20:28:38;;;;;;;6.78;3.53;;;;;;;8.50;100.00;101317.06;10416930;28;20038;-64
2023/01/13 20:33:38;;;;;;;7.78;4.40;;;;;;;8.45;100.00;101322.13;10423019;28;20141;-64
2023/01/13 20:38:39;;;;;;;12.13;3.28;;;;;;;8.52;100.00;101318.56;10434073;28;20037;-63
2023/01/13 20:43:39;;;;;;;26.42;3.80;;;;;;;8.49;100.00;101339.66;10415417;28;20044;-68
2023/01/13 20:48:39;;;;;;;15.10;5.07;;;;;;;8.58;100.00;101325.09;10416658;28;20025;-64
2023/01/13 20:53:40;;;;;;;24.83;5.15;;;;;;;8.53;100.00;101328.34;10416635;28;20061;-63
2023/01/13 20:58:40;;;;;;;13.50;5.43;;;;;;;8.60;100.00;101355.47;10416797;28;20145;-63
2023/01/13 21:03:41;;;;;;;14.70;4.25;;;;;;;8.58;100.00;101346.69;10416414;28;20485;-66
2023/01/13 21:08:41;;;;;;;12.20;5.60;;;;;;;8.59;100.00;101354.63;10415737;28;20048;-64
2023/01/13 21:19:06;;;;;;;12.55;4.32;;;;;;;8.68;100.00;101362.69;10414826;28;20507;-64
2023/01/13 21:24:07;;;;;;;16.38;4.53;;;;;;;8.64;100.00;101356.81;10415553;28;20042;-63
2023/01/13 21:29:07;;;;;;;12.07;3.70;;;;;;;8.61;100.00;101366.13;10416795;28;20058;-63
2023/01/13 21:34:08;;;;;;;21.08;2.85;;;;;;;8.60;100.00;101364.41;10415183;28;20374;-64
2023/01/13 21:39:08;;;;;;;13.65;4.03;;;;;;;8.65;100.00;101377.41;10381289;28;20041;-63
2023/01/13 21:49:42;;;;;;;25.92;5.38;;;;;;;8.61;100.00;101387.72;10400619;28;20401;-63
2023/01/13 22:00:03;;;;;;;9.40;4.65;;;;;;;8.65;100.00;101398.13;10430700;28;20041;-64
2023/01/13 22:05:07;;;;;;;21.15;4.82;;;;;;;8.63;100.00;101395.63;10409873;28;20117;-64
2023/01/13 22:10:15;;;;;;;12.48;4.43;;;;;;;8.64;100.00;101399.16;10396893;28;20041;-65
2023/01/13 22:15:16;;;;;;;18.80;4.72;;;;;;;8.56;100.00;101395.47;10420146;28;20354;-64
2023/01/13 22:20:18;;;;;;;11.85;4.90;;;;;;;8.48;100.00;101376.59;10417322;28;20025;-63
2023/01/13 22:25:19;;;;;;;12.45;3.75;;;;;;;8.34;100.00;101388.06;10405337;28;20072;-63
2023/01/13 22:30:23;;;;;;;15.15;3.72;;;;;;;8.21;100.00;101406.63;10427365;28;20042;-64
2023/01/13 22:35:24;;;;;;;17.92;5.13;;;;;;;8.13;100.00;101405.59;10404381;28;20073;-64
2023/01/13 22:40:24;;;;;;;12.38;5.00;;;;;;;8.06;100.00;101403.75;10403632;28;20448;-65
2023/01/13 22:45:25;;;;;;;13.50;5.78;;;;;;;8.03;100.00;101413.03;10404090;28;20037;-64
2023/01/13 22:50:25;;;;;;;11.13;3.65;;;;;;;7.97;100.00;101413.69;10403226;28;20088;-64
2023/01/13 22:55:25;;;;;;;11.85;5.07;;;;;;;8.00;100.00;101409.81;10420655;28;20092;-65
2023/01/13 23:00:26;;;;;;;14.98;4.07;;;;;;;7.97;100.00;101418.25;10422061;28;20042;-64
2023/01/13 23:05:26;;;;;;;13.35;3.97;;;;;;;7.94;100.00;101414.03;10419912;28;20037;-64
2023/01/13 23:10:26;;;;;;;24.45;4.43;;;;;;;7.86;100.00;101400.56;10403591;28;20459;-64
2023/01/13 23:15:27;;;;;;;12.07;3.42;;;;;;;7.77;100.00;101397.00;10420017;28;20042;-65
2023/01/13 23:20:29;;;;;;;15.57;4.38;;;;;;;7.69;100.00;101388.94;10419572;28;20068;-64
2023/01/13 23:25:29;;;;;;;15.25;3.90;;;;;;;7.56;100.00;101402.88;10419675;28;20501;-64
2023/01/13 23:30:30;;;;;;;20.67;5.00;;;;;;;7.46;100.00;101408.41;10419381;28;20034;-63
2023/01/13 23:35:30;;;;;;;20.38;4.90;;;;;;;7.34;100.00;101406.16;10420294;28;20084;-64
2023/01/13 23:40:32;;;;;;;8.52;3.88;;;;;;;7.29;100.00;101408.53;10403045;28;20057;-64
2023/01/13 23:45:33;;;;;;;13.15;4.30;;;;;;;7.16;100.00;101411.69;10386161;28;20037;-64
2023/01/13 23:50:33;;;;;;;12.50;4.55;;;;;;;7.18;100.00;101409.69;10418662;28;20492;-65
2023/01/13 23:55:34;;;;;;;7.80;3.05;;;;;;;7.20;100.00;101395.03;10401580;28;20061;-64
